Аэропорт: Бегишево. Набережные Челны, Нижнекамск

ICAO: UWKE

METAR:
2024-04-22 22:30:00
UWKE 222230Z 20004MPS CAVOK 19/07 Q1017 R21/090070 NOSIG RMK QFE746/0995
TAF:
2024-04-22 19:58:00
TAF UWKE 221958Z 2221/2321 16003G10MPS 9999 SCT040 
  TEMPO 2221/2308 12003G10MPS BKN016 
  TEMPO 2308/2321 VRB08G14MPS 6000 -TSRA BKN016CB